sensor_id;sensor_type;location;lat;lon;timestamp;temperature;humidity
69543;SHT31;56762;49.494;11.768;2023-02-22T00:02:31;4.18;90.24
69543;SHT31;56762;49.494;11.768;2023-02-22T00:05:00;4.18;90.23
69543;SHT31;56762;49.494;11.768;2023-02-22T00:07:30;4.14;90.14
69543;SHT31;56762;49.494;11.768;2023-02-22T00:10:00;4.13;89.98
69543;SHT31;56762;49.494;11.768;2023-02-22T00:12:33;4.16;89.88
69543;SHT31;56762;49.494;11.768;2023-02-22T00:15:04;4.17;89.79
69543;SHT31;56762;49.494;11.768;2023-02-22T00:17:44;4.10;90.00
69543;SHT31;56762;49.494;11.768;2023-02-22T00:20:23;4.06;90.14
69543;SHT31;56762;49.494;11.768;2023-02-22T00:22:54;3.99;89.89
69543;SHT31;56762;49.494;11.768;2023-02-22T00:25:23;3.94;89.92
69543;SHT31;56762;49.494;11.768;2023-02-22T00:27:53;3.93;90.17
69543;SHT31;56762;49.494;11.768;2023-02-22T00:30:24;3.86;89.98
69543;SHT31;56762;49.494;11.768;2023-02-22T00:32:55;3.79;89.75
69543;SHT31;56762;49.494;11.768;2023-02-22T00:35:25;3.73;89.70
69543;SHT31;56762;49.494;11.768;2023-02-22T00:41:41;3.61;89.66
69543;SHT31;56762;49.494;11.768;2023-02-22T00:44:13;3.54;90.02
69543;SHT31;56762;49.494;11.768;2023-02-22T00:46:43;3.52;90.39
69543;SHT31;56762;49.494;11.768;2023-02-22T00:49:12;3.48;90.38
69543;SHT31;56762;49.494;11.768;2023-02-22T00:51:41;3.45;90.39
69543;SHT31;56762;49.494;11.768;2023-02-22T00:54:11;3.45;90.43
69543;SHT31;56762;49.494;11.768;2023-02-22T00:56:45;3.45;89.99
69543;SHT31;56762;49.494;11.768;2023-02-22T00:59:13;3.36;89.65
69543;SHT31;56762;49.494;11.768;2023-02-22T01:01:43;3.32;89.67
69543;SHT31;56762;49.494;11.768;2023-02-22T01:07:57;3.30;90.45
69543;SHT31;56762;49.494;11.768;2023-02-22T01:10:36;3.30;90.50
69543;SHT31;56762;49.494;11.768;2023-02-22T01:13:08;3.32;90.57
69543;SHT31;56762;49.494;11.768;2023-02-22T01:15:40;3.30;90.56
69543;SHT31;56762;49.494;11.768;2023-02-22T01:18:10;3.27;90.38
69543;SHT31;56762;49.494;11.768;2023-02-22T01:20:42;3.22;90.24
69543;SHT31;56762;49.494;11.768;2023-02-22T01:23:17;3.20;90.36
69543;SHT31;56762;49.494;11.768;2023-02-22T01:25:49;3.15;90.60
69543;SHT31;56762;49.494;11.768;2023-02-22T01:28:21;3.20;90.96
69543;SHT31;56762;49.494;11.768;2023-02-22T01:30:52;3.25;90.91
69543;SHT31;56762;49.494;11.768;2023-02-22T01:37:03;3.31;90.96
69543;SHT31;56762;49.494;11.768;2023-02-22T01:39:34;3.34;91.09
69543;SHT31;56762;49.494;11.768;2023-02-22T01:42:12;3.39;90.90
69543;SHT31;56762;49.494;11.768;2023-02-22T01:44:40;3.41;90.66
69543;SHT31;56762;49.494;11.768;2023-02-22T01:47:37;3.39;90.95
69543;SHT31;56762;49.494;11.768;2023-02-22T01:50:15;3.36;91.02
69543;SHT31;56762;49.494;11.768;2023-02-22T01:52:50;3.36;90.98
69543;SHT31;56762;49.494;11.768;2023-02-22T01:55:19;3.38;90.98
69543;SHT31;56762;49.494;11.768;2023-02-22T01:57:56;3.39;90.75
69543;SHT31;56762;49.494;11.768;2023-02-22T02:00:29;3.38;90.31
69543;SHT31;56762;49.494;11.768;2023-02-22T02:03:00;3.35;90.57
69543;SHT31;56762;49.494;11.768;2023-02-22T02:05:31;3.36;90.41
69543;SHT31;56762;49.494;11.768;2023-02-22T02:08:09;3.35;90.20
69543;SHT31;56762;49.494;11.768;2023-02-22T02:10:43;3.30;90.06
69543;SHT31;56762;49.494;11.768;2023-02-22T02:13:12;3.27;90.12
69543;SHT31;56762;49.494;11.768;2023-02-22T02:15:43;3.22;90.20
69543;SHT31;56762;49.494;11.768;2023-02-22T02:18:16;3.20;89.77
69543;SHT31;56762;49.494;11.768;2023-02-22T02:20:53;3.20;89.77
69543;SHT31;56762;49.494;11.768;2023-02-22T02:23:50;3.20;90.09
69543;SHT31;56762;49.494;11.768;2023-02-22T02:26:50;3.25;89.75
69543;SHT31;56762;49.494;11.768;2023-02-22T02:33:06;3.28;89.64
69543;SHT31;56762;49.494;11.768;2023-02-22T02:35:53;3.27;89.76
69543;SHT31;56762;49.494;11.768;2023-02-22T02:38:31;3.28;89.85
69543;SHT31;56762;49.494;11.768;2023-02-22T02:41:05;3.27;90.02
69543;SHT31;56762;49.494;11.768;2023-02-22T02:43:38;3.25;90.37
69543;SHT31;56762;49.494;11.768;2023-02-22T02:46:11;3.20;90.55
69543;SHT31;56762;49.494;11.768;2023-02-22T02:48:45;3.18;90.57
69543;SHT31;56762;49.494;11.768;2023-02-22T02:51:17;3.15;90.66
69543;SHT31;56762;49.494;11.768;2023-02-22T02:53:46;3.10;90.88
69543;SHT31;56762;49.494;11.768;2023-02-22T02:56:17;3.08;90.99
69543;SHT31;56762;49.494;11.768;2023-02-22T02:58:47;3.01;90.96
69543;SHT31;56762;49.494;11.768;2023-02-22T03:01:21;2.99;91.27
69543;SHT31;56762;49.494;11.768;2023-02-22T03:04:04;2.97;91.60
69543;SHT31;56762;49.494;11.768;2023-02-22T03:09:39;3.01;91.40
69543;SHT31;56762;49.494;11.768;2023-02-22T03:12:17;2.99;91.13
69543;SHT31;56762;49.494;11.768;2023-02-22T03:14:52;2.96;91.18
69543;SHT31;56762;49.494;11.768;2023-02-22T03:17:25;2.96;90.76
69543;SHT31;56762;49.494;11.768;2023-02-22T03:20:01;2.96;90.89
69543;SHT31;56762;49.494;11.768;2023-02-22T03:22:39;3.00;90.74
69543;SHT31;56762;49.494;11.768;2023-02-22T03:25:16;3.00;90.70
69543;SHT31;56762;49.494;11.768;2023-02-22T03:27:48;2.97;90.59
69543;SHT31;56762;49.494;11.768;2023-02-22T03:30:24;2.97;90.71
69543;SHT31;56762;49.494;11.768;2023-02-22T03:32:58;2.97;91.09
69543;SHT31;56762;49.494;11.768;2023-02-22T03:35:32;2.97;90.77
69543;SHT31;56762;49.494;11.768;2023-02-22T03:38:03;3.00;91.14
69543;SHT31;56762;49.494;11.768;2023-02-22T03:40:35;3.04;91.36
69543;SHT31;56762;49.494;11.768;2023-02-22T03:43:06;3.03;91.31
69543;SHT31;56762;49.494;11.768;2023-02-22T03:45:35;3.04;91.62
69543;SHT31;56762;49.494;11.768;2023-02-22T03:48:10;3.05;91.55
69543;SHT31;56762;49.494;11.768;2023-02-22T03:50:41;3.04;91.19
69543;SHT31;56762;49.494;11.768;2023-02-22T03:53:08;3.07;91.41
69543;SHT31;56762;49.494;11.768;2023-02-22T03:55:36;3.08;91.65
69543;SHT31;56762;49.494;11.768;2023-02-22T03:58:07;3.15;91.90
69543;SHT31;56762;49.494;11.768;2023-02-22T04:00:36;3.22;92.43
69543;SHT31;56762;49.494;11.768;2023-02-22T04:03:04;3.22;91.92
69543;SHT31;56762;49.494;11.768;2023-02-22T04:05:31;3.20;91.99
69543;SHT31;56762;49.494;11.768;2023-02-22T04:08:00;3.21;92.25
69543;SHT31;56762;49.494;11.768;2023-02-22T04:10:28;3.25;92.21
69543;SHT31;56762;49.494;11.768;2023-02-22T04:12:56;3.27;92.10
69543;SHT31;56762;49.494;11.768;2023-02-22T04:15:24;3.28;92.16
69543;SHT31;56762;49.494;11.768;2023-02-22T04:17:52;3.30;92.53
69543;SHT31;56762;49.494;11.768;2023-02-22T04:20:20;3.32;92.31
69543;SHT31;56762;49.494;11.768;2023-02-22T04:22:51;3.31;92.13
69543;SHT31;56762;49.494;11.768;2023-02-22T04:25:21;3.34;92.44
69543;SHT31;56762;49.494;11.768;2023-02-22T04:27:50;3.36;92.58
69543;SHT31;56762;49.494;11.768;2023-02-22T04:30:18;3.42;92.55
69543;SHT31;56762;49.494;11.768;2023-02-22T04:32:46;3.43;91.82
69543;SHT31;56762;49.494;11.768;2023-02-22T04:35:14;3.46;91.82
69543;SHT31;56762;49.494;11.768;2023-02-22T04:37:42;3.49;91.69
69543;SHT31;56762;49.494;11.768;2023-02-22T04:40:10;3.51;91.71
69543;SHT31;56762;49.494;11.768;2023-02-22T04:42:38;3.52;91.52
69543;SHT31;56762;49.494;11.768;2023-02-22T04:45:07;3.54;91.63
69543;SHT31;56762;49.494;11.768;2023-02-22T04:47:35;3.55;91.44
69543;SHT31;56762;49.494;11.768;2023-02-22T04:50:04;3.56;91.52
69543;SHT31;56762;49.494;11.768;2023-02-22T04:52:32;3.55;91.85
69543;SHT31;56762;49.494;11.768;2023-02-22T04:55:00;3.55;91.70
69543;SHT31;56762;49.494;11.768;2023-02-22T04:57:28;3.54;91.66
69543;SHT31;56762;49.494;11.768;2023-02-22T04:59:57;3.56;91.75
69543;SHT31;56762;49.494;11.768;2023-02-22T05:02:25;3.56;91.61
69543;SHT31;56762;49.494;11.768;2023-02-22T05:04:52;3.55;91.87
69543;SHT31;56762;49.494;11.768;2023-02-22T05:07:20;3.55;92.25
69543;SHT31;56762;49.494;11.768;2023-02-22T05:09:48;3.56;92.18
69543;SHT31;56762;49.494;11.768;2023-02-22T05:12:15;3.56;92.30
69543;SHT31;56762;49.494;11.768;2023-02-22T05:14:43;3.49;91.74
69543;SHT31;56762;49.494;11.768;2023-02-22T05:17:12;3.52;92.23
69543;SHT31;56762;49.494;11.768;2023-02-22T05:19:40;3.46;91.79
69543;SHT31;56762;49.494;11.768;2023-02-22T05:22:08;3.48;91.36
69543;SHT31;56762;49.494;11.768;2023-02-22T05:24:35;3.45;91.49
69543;SHT31;56762;49.494;11.768;2023-02-22T05:27:03;3.51;91.62
69543;SHT31;56762;49.494;11.768;2023-02-22T05:29:31;3.48;91.30
69543;SHT31;56762;49.494;11.768;2023-02-22T05:31:59;3.46;90.93
69543;SHT31;56762;49.494;11.768;2023-02-22T05:34:29;3.36;90.62
69543;SHT31;56762;49.494;11.768;2023-02-22T05:36:57;3.28;91.03
69543;SHT31;56762;49.494;11.768;2023-02-22T05:39:24;3.28;91.50
69543;SHT31;56762;49.494;11.768;2023-02-22T05:41:52;3.24;91.33
69543;SHT31;56762;49.494;11.768;2023-02-22T05:44:20;3.25;91.72
69543;SHT31;56762;49.494;11.768;2023-02-22T05:46:47;3.27;91.81
69543;SHT31;56762;49.494;11.768;2023-02-22T05:49:16;3.31;92.05
69543;SHT31;56762;49.494;11.768;2023-02-22T05:51:45;3.34;92.04
69543;SHT31;56762;49.494;11.768;2023-02-22T05:54:12;3.35;92.48
69543;SHT31;56762;49.494;11.768;2023-02-22T05:56:40;3.32;91.34
69543;SHT31;56762;49.494;11.768;2023-02-22T05:59:07;3.32;91.71
69543;SHT31;56762;49.494;11.768;2023-02-22T06:01:35;3.32;91.86
69543;SHT31;56762;49.494;11.768;2023-02-22T06:04:03;3.30;91.53
69543;SHT31;56762;49.494;11.768;2023-02-22T06:06:30;3.27;92.01
69543;SHT31;56762;49.494;11.768;2023-02-22T06:08:59;3.30;92.10
69543;SHT31;56762;49.494;11.768;2023-02-22T06:11:27;3.28;91.90
69543;SHT31;56762;49.494;11.768;2023-02-22T06:13:55;3.27;91.81
69543;SHT31;56762;49.494;11.768;2023-02-22T06:16:22;3.31;92.13
69543;SHT31;56762;49.494;11.768;2023-02-22T06:18:50;3.32;91.94
69543;SHT31;56762;49.494;11.768;2023-02-22T06:21:18;3.28;91.84
69543;SHT31;56762;49.494;11.768;2023-02-22T06:23:46;3.30;92.11
69543;SHT31;56762;49.494;11.768;2023-02-22T06:26:16;3.36;92.44
69543;SHT31;56762;49.494;11.768;2023-02-22T06:28:44;3.39;92.55
69543;SHT31;56762;49.494;11.768;2023-02-22T06:31:12;3.39;92.67
69543;SHT31;56762;49.494;11.768;2023-02-22T06:33:40;3.41;92.09
69543;SHT31;56762;49.494;11.768;2023-02-22T06:36:08;3.42;92.03
69543;SHT31;56762;49.494;11.768;2023-02-22T06:38:37;3.42;91.77
69543;SHT31;56762;49.494;11.768;2023-02-22T06:41:05;3.45;91.77
69543;SHT31;56762;49.494;11.768;2023-02-22T06:43:34;3.46;91.32
69543;SHT31;56762;49.494;11.768;2023-02-22T06:46:02;3.48;91.35
69543;SHT31;56762;49.494;11.768;2023-02-22T06:48:30;3.43;91.54
69543;SHT31;56762;49.494;11.768;2023-02-22T06:50:57;3.46;91.12
69543;SHT31;56762;49.494;11.768;2023-02-22T06:53:25;3.51;91.58
69543;SHT31;56762;49.494;11.768;2023-02-22T06:55:53;3.59;92.59
69543;SHT31;56762;49.494;11.768;2023-02-22T06:58:21;3.58;91.13
69543;SHT31;56762;49.494;11.768;2023-02-22T07:00:50;3.62;91.76
69543;SHT31;56762;49.494;11.768;2023-02-22T07:03:18;3.61;91.52
69543;SHT31;56762;49.494;11.768;2023-02-22T07:05:46;3.61;91.53
69543;SHT31;56762;49.494;11.768;2023-02-22T07:08:13;3.61;91.59
69543;SHT31;56762;49.494;11.768;2023-02-22T07:10:41;3.62;91.71
69543;SHT31;56762;49.494;11.768;2023-02-22T07:13:09;3.68;91.73
69543;SHT31;56762;49.494;11.768;2023-02-22T07:15:36;3.75;91.65
69543;SHT31;56762;49.494;11.768;2023-02-22T07:18:05;3.78;91.24
69543;SHT31;56762;49.494;11.768;2023-02-22T07:20:33;3.79;90.62
69543;SHT31;56762;49.494;11.768;2023-02-22T07:23:01;3.87;90.72
69543;SHT31;56762;49.494;11.768;2023-02-22T07:25:29;3.90;90.27
69543;SHT31;56762;49.494;11.768;2023-02-22T07:27:57;3.90;90.33
69543;SHT31;56762;49.494;11.768;2023-02-22T07:30:27;3.93;91.08
69543;SHT31;56762;49.494;11.768;2023-02-22T07:32:58;3.94;90.59
69543;SHT31;56762;49.494;11.768;2023-02-22T07:35:30;4.04;90.27
69543;SHT31;56762;49.494;11.768;2023-02-22T07:37:58;4.10;90.59
69543;SHT31;56762;49.494;11.768;2023-02-22T07:40:26;4.14;90.46
69543;SHT31;56762;49.494;11.768;2023-02-22T07:42:56;4.18;90.16
69543;SHT31;56762;49.494;11.768;2023-02-22T07:45:26;4.23;89.84
69543;SHT31;56762;49.494;11.768;2023-02-22T07:47:55;4.25;90.05
69543;SHT31;56762;49.494;11.768;2023-02-22T07:50:24;4.34;90.58
69543;SHT31;56762;49.494;11.768;2023-02-22T07:52:54;4.42;91.58
69543;SHT31;56762;49.494;11.768;2023-02-22T07:55:26;4.50;89.86
69543;SHT31;56762;49.494;11.768;2023-02-22T07:57:56;4.55;90.30
69543;SHT31;56762;49.494;11.768;2023-02-22T08:00:26;4.60;90.13
69543;SHT31;56762;49.494;11.768;2023-02-22T08:02:54;4.65;90.19
69543;SHT31;56762;49.494;11.768;2023-02-22T08:05:24;4.69;89.83
69543;SHT31;56762;49.494;11.768;2023-02-22T08:07:54;4.76;90.22
69543;SHT31;56762;49.494;11.768;2023-02-22T08:10:23;4.76;90.39
69543;SHT31;56762;49.494;11.768;2023-02-22T08:12:52;4.78;89.60
69543;SHT31;56762;49.494;11.768;2023-02-22T08:15:22;4.82;89.46
69543;SHT31;56762;49.494;11.768;2023-02-22T08:17:50;4.85;89.69
69543;SHT31;56762;49.494;11.768;2023-02-22T08:20:18;4.85;89.41
69543;SHT31;56762;49.494;11.768;2023-02-22T08:22:47;4.89;89.39
69543;SHT31;56762;49.494;11.768;2023-02-22T08:25:17;4.96;89.60
69543;SHT31;56762;49.494;11.768;2023-02-22T08:27:46;4.96;88.87
69543;SHT31;56762;49.494;11.768;2023-02-22T08:30:15;5.05;89.61
69543;SHT31;56762;49.494;11.768;2023-02-22T08:32:44;5.02;89.63
69543;SHT31;56762;49.494;11.768;2023-02-22T08:35:12;5.06;89.53
69543;SHT31;56762;49.494;11.768;2023-02-22T08:37:41;5.12;89.22
69543;SHT31;56762;49.494;11.768;2023-02-22T08:40:11;5.16;89.73
69543;SHT31;56762;49.494;11.768;2023-02-22T08:42:41;5.22;90.04
69543;SHT31;56762;49.494;11.768;2023-02-22T08:45:10;5.27;89.96
69543;SHT31;56762;49.494;11.768;2023-02-22T08:47:38;5.34;88.90
69543;SHT31;56762;49.494;11.768;2023-02-22T08:50:08;5.36;89.03
69543;SHT31;56762;49.494;11.768;2023-02-22T08:52:36;5.36;88.64
69543;SHT31;56762;49.494;11.768;2023-02-22T08:55:04;5.39;88.48
69543;SHT31;56762;49.494;11.768;2023-02-22T08:57:32;5.51;90.20
69543;SHT31;56762;49.494;11.768;2023-02-22T09:00:01;5.63;90.22
69543;SHT31;56762;49.494;11.768;2023-02-22T09:02:29;5.74;89.89
69543;SHT31;56762;49.494;11.768;2023-02-22T09:04:56;5.79;89.40
69543;SHT31;56762;49.494;11.768;2023-02-22T09:07:24;5.88;89.02
69543;SHT31;56762;49.494;11.768;2023-02-22T09:09:52;5.90;88.75
69543;SHT31;56762;49.494;11.768;2023-02-22T09:12:19;5.95;88.76
69543;SHT31;56762;49.494;11.768;2023-02-22T09:14:47;6.05;89.20
69543;SHT31;56762;49.494;11.768;2023-02-22T09:17:16;6.15;89.00
69543;SHT31;56762;49.494;11.768;2023-02-22T09:19:44;6.21;88.33
69543;SHT31;56762;49.494;11.768;2023-02-22T09:22:11;6.35;89.31
69543;SHT31;56762;49.494;11.768;2023-02-22T09:24:39;6.40;88.75
69543;SHT31;56762;49.494;11.768;2023-02-22T09:27:08;6.53;88.52
69543;SHT31;56762;49.494;11.768;2023-02-22T09:29:38;6.64;88.48
69543;SHT31;56762;49.494;11.768;2023-02-22T09:32:06;6.72;87.67
69543;SHT31;56762;49.494;11.768;2023-02-22T09:34:35;6.79;88.12
69543;SHT31;56762;49.494;11.768;2023-02-22T09:37:02;6.84;87.84
69543;SHT31;56762;49.494;11.768;2023-02-22T09:39:35;6.88;87.39
69543;SHT31;56762;49.494;11.768;2023-02-22T09:42:09;6.93;87.77
69543;SHT31;56762;49.494;11.768;2023-02-22T09:44:43;6.98;87.35
69543;SHT31;56762;49.494;11.768;2023-02-22T09:47:15;7.14;87.86
69543;SHT31;56762;49.494;11.768;2023-02-22T09:49:55;7.24;87.27
69543;SHT31;56762;49.494;11.768;2023-02-22T09:52:25;7.32;87.21
69543;SHT31;56762;49.494;11.768;2023-02-22T09:55:03;7.31;87.36
69543;SHT31;56762;49.494;11.768;2023-02-22T09:57:36;7.32;86.48
69543;SHT31;56762;49.494;11.768;2023-02-22T10:00:12;7.35;86.51
69543;SHT31;56762;49.494;11.768;2023-02-22T10:02:47;7.44;87.37
69543;SHT31;56762;49.494;11.768;2023-02-22T10:05:20;7.48;87.01
69543;SHT31;56762;49.494;11.768;2023-02-22T10:07:52;7.56;86.66
69543;SHT31;56762;49.494;11.768;2023-02-22T10:10:23;7.61;86.45
69543;SHT31;56762;49.494;11.768;2023-02-22T10:12:58;7.70;86.09
69543;SHT31;56762;49.494;11.768;2023-02-22T10:15:43;7.75;86.42
69543;SHT31;56762;49.494;11.768;2023-02-22T10:18:27;7.79;86.76
69543;SHT31;56762;49.494;11.768;2023-02-22T10:21:06;7.82;86.08
69543;SHT31;56762;49.494;11.768;2023-02-22T10:23:48;7.86;86.40
69543;SHT31;56762;49.494;11.768;2023-02-22T10:26:24;7.90;85.86
69543;SHT31;56762;49.494;11.768;2023-02-22T10:28:55;7.80;86.34
69543;SHT31;56762;49.494;11.768;2023-02-22T10:31:28;7.87;86.39
69543;SHT31;56762;49.494;11.768;2023-02-22T10:34:00;7.94;86.12
69543;SHT31;56762;49.494;11.768;2023-02-22T10:36:30;7.97;86.32
69543;SHT31;56762;49.494;11.768;2023-02-22T10:39:06;7.96;85.82
69543;SHT31;56762;49.494;11.768;2023-02-22T10:41:43;7.93;86.14
69543;SHT31;56762;49.494;11.768;2023-02-22T10:44:13;7.97;86.10
69543;SHT31;56762;49.494;11.768;2023-02-22T10:46:41;8.01;86.49
69543;SHT31;56762;49.494;11.768;2023-02-22T10:49:10;8.03;86.49
69543;SHT31;56762;49.494;11.768;2023-02-22T10:51:44;8.04;86.25
69543;SHT31;56762;49.494;11.768;2023-02-22T10:54:23;8.14;86.16
69543;SHT31;56762;49.494;11.768;2023-02-22T10:56:54;8.16;85.98
69543;SHT31;56762;49.494;11.768;2023-02-22T10:59:28;8.17;86.06
69543;SHT31;56762;49.494;11.768;2023-02-22T11:01:58;8.18;86.21
69543;SHT31;56762;49.494;11.768;2023-02-22T11:04:26;8.24;86.39
69543;SHT31;56762;49.494;11.768;2023-02-22T11:07:09;8.24;86.44
69543;SHT31;56762;49.494;11.768;2023-02-22T11:09:46;8.31;86.84
69543;SHT31;56762;49.494;11.768;2023-02-22T11:12:18;8.37;86.58
69543;SHT31;56762;49.494;11.768;2023-02-22T11:14:46;8.45;86.63
69543;SHT31;56762;49.494;11.768;2023-02-22T11:17:18;8.52;86.30
69543;SHT31;56762;49.494;11.768;2023-02-22T11:19:49;8.59;86.15
69543;SHT31;56762;49.494;11.768;2023-02-22T11:22:24;8.68;86.10
69543;SHT31;56762;49.494;11.768;2023-02-22T11:24:56;8.66;85.99
69543;SHT31;56762;49.494;11.768;2023-02-22T11:27:34;8.71;86.01
69543;SHT31;56762;49.494;11.768;2023-02-22T11:30:18;8.76;86.57
69543;SHT31;56762;49.494;11.768;2023-02-22T11:32:49;8.85;86.17
69543;SHT31;56762;49.494;11.768;2023-02-22T11:35:30;8.96;86.26
69543;SHT31;56762;49.494;11.768;2023-02-22T11:38:15;9.06;85.75
69543;SHT31;56762;49.494;11.768;2023-02-22T11:40:44;9.15;85.46
69543;SHT31;56762;49.494;11.768;2023-02-22T11:43:16;9.20;85.04
69543;SHT31;56762;49.494;11.768;2023-02-22T11:45:58;9.26;84.92
69543;SHT31;56762;49.494;11.768;2023-02-22T11:48:29;9.34;84.79
69543;SHT31;56762;49.494;11.768;2023-02-22T11:51:15;9.40;84.94
69543;SHT31;56762;49.494;11.768;2023-02-22T11:54:06;9.46;84.74
69543;SHT31;56762;49.494;11.768;2023-02-22T11:56:39;9.51;84.61
69543;SHT31;56762;49.494;11.768;2023-02-22T11:59:18;9.55;84.30
69543;SHT31;56762;49.494;11.768;2023-02-22T12:01:51;9.59;83.88
69543;SHT31;56762;49.494;11.768;2023-02-22T12:04:38;9.61;83.84
69543;SHT31;56762;49.494;11.768;2023-02-22T12:07:19;9.62;83.91
69543;SHT31;56762;49.494;11.768;2023-02-22T12:09:59;9.68;83.39
69543;SHT31;56762;49.494;11.768;2023-02-22T12:12:39;9.71;83.70
69543;SHT31;56762;49.494;11.768;2023-02-22T12:15:13;9.78;83.48
69543;SHT31;56762;49.494;11.768;2023-02-22T12:17:50;9.87;83.19
69543;SHT31;56762;49.494;11.768;2023-02-22T12:20:30;9.88;83.19
69543;SHT31;56762;49.494;11.768;2023-02-22T12:23:11;9.92;82.79
69543;SHT31;56762;49.494;11.768;2023-02-22T12:25:49;9.95;82.53
69543;SHT31;56762;49.494;11.768;2023-02-22T12:28:22;10.05;82.44
69543;SHT31;56762;49.494;11.768;2023-02-22T12:30:58;10.06;82.22
69543;SHT31;56762;49.494;11.768;2023-02-22T12:33:37;10.12;82.21
69543;SHT31;56762;49.494;11.768;2023-02-22T12:36:10;10.16;81.82
69543;SHT31;56762;49.494;11.768;2023-02-22T12:38:43;10.22;81.88
69543;SHT31;56762;49.494;11.768;2023-02-22T12:41:21;10.29;82.00
69543;SHT31;56762;49.494;11.768;2023-02-22T12:43:54;10.35;81.71
69543;SHT31;56762;49.494;11.768;2023-02-22T12:46:27;10.42;80.88
69543;SHT31;56762;49.494;11.768;2023-02-22T12:49:02;10.57;80.25
69543;SHT31;56762;49.494;11.768;2023-02-22T12:51:37;10.61;80.25
69543;SHT31;56762;49.494;11.768;2023-02-22T12:54:14;10.68;80.12
69543;SHT31;56762;49.494;11.768;2023-02-22T12:56:49;10.74;79.58
69543;SHT31;56762;49.494;11.768;2023-02-22T12:59:24;10.78;79.73
69543;SHT31;56762;49.494;11.768;2023-02-22T13:01:55;10.81;79.25
69543;SHT31;56762;49.494;11.768;2023-02-22T13:04:25;10.85;79.18
69543;SHT31;56762;49.494;11.768;2023-02-22T13:07:13;10.93;79.07
69543;SHT31;56762;49.494;11.768;2023-02-22T13:10:10;11.03;78.61
69543;SHT31;56762;49.494;11.768;2023-02-22T13:12:47;11.06;78.12
69543;SHT31;56762;49.494;11.768;2023-02-22T13:15:22;11.14;77.73
69543;SHT31;56762;49.494;11.768;2023-02-22T13:21:43;11.25;77.33
69543;SHT31;56762;49.494;11.768;2023-02-22T13:24:18;11.27;77.20
69543;SHT31;56762;49.494;11.768;2023-02-22T13:26:50;11.27;77.38
69543;SHT31;56762;49.494;11.768;2023-02-22T13:29:24;11.34;77.21
69543;SHT31;56762;49.494;11.768;2023-02-22T13:32:07;11.35;77.08
69543;SHT31;56762;49.494;11.768;2023-02-22T13:34:56;11.39;76.81
69543;SHT31;56762;49.494;11.768;2023-02-22T13:37:44;11.43;76.46
69543;SHT31;56762;49.494;11.768;2023-02-22T13:46:33;11.52;75.88
69543;SHT31;56762;49.494;11.768;2023-02-22T13:49:29;11.58;75.87
69543;SHT31;56762;49.494;11.768;2023-02-22T13:52:00;11.65;75.91
69543;SHT31;56762;49.494;11.768;2023-02-22T13:54:36;11.65;75.64
69543;SHT31;56762;49.494;11.768;2023-02-22T13:57:16;11.65;75.20
69543;SHT31;56762;49.494;11.768;2023-02-22T13:59:44;11.65;75.34
69543;SHT31;56762;49.494;11.768;2023-02-22T14:02:32;11.66;75.00
69543;SHT31;56762;49.494;11.768;2023-02-22T14:05:50;11.69;74.44
69543;SHT31;56762;49.494;11.768;2023-02-22T14:08:38;11.75;74.06
69543;SHT31;56762;49.494;11.768;2023-02-22T14:14:23;11.66;74.36
69543;SHT31;56762;49.494;11.768;2023-02-22T14:17:19;11.62;74.19
69543;SHT31;56762;49.494;11.768;2023-02-22T14:22:48;11.59;74.51
69543;SHT31;56762;49.494;11.768;2023-02-22T14:25:34;11.62;73.97
69543;SHT31;56762;49.494;11.768;2023-02-22T14:28:05;11.61;74.19
69543;SHT31;56762;49.494;11.768;2023-02-22T14:30:35;11.59;74.15
69543;SHT31;56762;49.494;11.768;2023-02-22T14:36:13;11.59;73.84
69543;SHT31;56762;49.494;11.768;2023-02-22T14:38:43;11.62;74.12
69543;SHT31;56762;49.494;11.768;2023-02-22T14:41:13;11.58;73.73
69543;SHT31;56762;49.494;11.768;2023-02-22T14:43:42;11.63;73.41
69543;SHT31;56762;49.494;11.768;2023-02-22T14:46:18;11.59;73.57
69543;SHT31;56762;49.494;11.768;2023-02-22T14:48:48;11.56;73.87
69543;SHT31;56762;49.494;11.768;2023-02-22T14:51:22;11.54;73.95
69543;SHT31;56762;49.494;11.768;2023-02-22T14:54:00;11.46;74.34
69543;SHT31;56762;49.494;11.768;2023-02-22T14:56:33;11.45;74.34
69543;SHT31;56762;49.494;11.768;2023-02-22T14:59:14;11.43;74.41
69543;SHT31;56762;49.494;11.768;2023-02-22T15:01:43;11.43;74.25
69543;SHT31;56762;49.494;11.768;2023-02-22T15:04:36;11.43;74.68
69543;SHT31;56762;49.494;11.768;2023-02-22T15:07:19;11.36;74.69
69543;SHT31;56762;49.494;11.768;2023-02-22T15:10:05;11.32;74.38
69543;SHT31;56762;49.494;11.768;2023-02-22T15:12:34;11.28;74.43
69543;SHT31;56762;49.494;11.768;2023-02-22T15:15:15;11.22;74.83
69543;SHT31;56762;49.494;11.768;2023-02-22T15:17:51;11.21;75.19
69543;SHT31;56762;49.494;11.768;2023-02-22T15:20:20;11.19;75.57
69543;SHT31;56762;49.494;11.768;2023-02-22T15:22:57;11.15;75.90
69543;SHT31;56762;49.494;11.768;2023-02-22T15:25:27;11.10;76.17
69543;SHT31;56762;49.494;11.768;2023-02-22T15:28:01;11.01;76.38
69543;SHT31;56762;49.494;11.768;2023-02-22T15:30:31;10.96;76.61
69543;SHT31;56762;49.494;11.768;2023-02-22T15:33:19;10.88;76.80
69543;SHT31;56762;49.494;11.768;2023-02-22T15:35:54;10.80;77.04
69543;SHT31;56762;49.494;11.768;2023-02-22T15:38:28;10.77;77.37
69543;SHT31;56762;49.494;11.768;2023-02-22T15:41:01;10.71;77.54
69543;SHT31;56762;49.494;11.768;2023-02-22T15:43:29;10.66;77.96
69543;SHT31;56762;49.494;11.768;2023-02-22T15:45:58;10.60;78.18
69543;SHT31;56762;49.494;11.768;2023-02-22T15:48:27;10.55;78.46
69543;SHT31;56762;49.494;11.768;2023-02-22T15:51:00;10.52;78.82
69543;SHT31;56762;49.494;11.768;2023-02-22T15:57:15;10.36;79.67
69543;SHT31;56762;49.494;11.768;2023-02-22T15:59:47;10.29;79.95
69543;SHT31;56762;49.494;11.768;2023-02-22T16:02:34;10.25;80.27
69543;SHT31;56762;49.494;11.768;2023-02-22T16:05:06;10.18;80.50
69543;SHT31;56762;49.494;11.768;2023-02-22T16:07:38;10.12;80.77
69543;SHT31;56762;49.494;11.768;2023-02-22T16:10:29;10.06;81.03
69543;SHT31;56762;49.494;11.768;2023-02-22T16:13:04;9.97;81.34
69543;SHT31;56762;49.494;11.768;2023-02-22T16:15:33;9.97;81.65
69543;SHT31;56762;49.494;11.768;2023-02-22T16:18:22;9.91;81.93
69543;SHT31;56762;49.494;11.768;2023-02-22T16:20:59;9.85;82.06
69543;SHT31;56762;49.494;11.768;2023-02-22T16:23:28;9.84;82.39
69543;SHT31;56762;49.494;11.768;2023-02-22T16:26:04;9.79;82.37
69543;SHT31;56762;49.494;11.768;2023-02-22T16:28:34;9.68;82.56
69543;SHT31;56762;49.494;11.768;2023-02-22T16:31:01;9.61;82.91
69543;SHT31;56762;49.494;11.768;2023-02-22T16:33:30;9.54;83.03
69543;SHT31;56762;49.494;11.768;2023-02-22T16:36:04;9.51;83.41
69543;SHT31;56762;49.494;11.768;2023-02-22T16:38:34;9.50;83.57
69543;SHT31;56762;49.494;11.768;2023-02-22T16:41:05;9.50;83.52
69543;SHT31;56762;49.494;11.768;2023-02-22T16:43:35;9.48;83.48